KFXE

Fort Lauderdale Executive Airport

Fort Lauderdale, Florida, USA
KFXE 151131Z 1512/1612 13005KT P6SM FEW010 SCT250 FM151400 11010KT P6SM FEW030 SCT250 FM151800 11015KT P6SM SCT030 BKN050 FM160100 10006KT P6SM FEW030 SCT250
Issued Valid From Valid To
Aug-15 @ 11:31 UTC
(an hour ago)
Aug-15 @ 12:00 UTC
(42 minutes ago)
Aug-16 @ 12:00 UTC
(in 23 hours)
Aug-15 @ 12:00 to Aug-15 @ 14:00
KFXE 151131Z 1512/1612 13005KT P6SM FEW010 SCT250
Wind Visibility Clouds
130° at 5 knots Greater than 6 miles
  • Few at 1,000' AGL
  • Scattered at 25,000' AGL
From Aug-15 @ 14:00 to Aug-15 @ 18:00
FM151400 11010KT P6SM FEW030 SCT250
Wind Visibility Clouds
110° at 10 knots Greater than 6 miles
  • Few at 3,000' AGL
  • Scattered at 25,000' AGL
From Aug-15 @ 18:00 to Aug-16 @ 01:00
FM151800 11015KT P6SM SCT030 BKN050
Wind Visibility Clouds
110° at 15 knots Greater than 6 miles
  • Scattered at 3,000' AGL
  • Broken at 5,000' AGL
From Aug-16 @ 01:00 to Aug-16 @ 12:00
FM160100 10006KT P6SM FEW030 SCT250
Wind Visibility Clouds
100° at 6 knots Greater than 6 miles
  • Few at 3,000' AGL
  • Scattered at 25,000' AGL
KFXE 151131Z 1512/1612 13005KT P6SM FEW010 SCT250 FM151400 11010KT P6SM FEW030 SCT250 FM151800 11015KT P6SM SCT030 BKN050 FM160100 10006KT P6SM FEW030 SCT250
Issued Aug-15 @ 11:31 UTC
(an hour ago)
Valid From Aug-15 @ 12:00 UTC
(42 minutes ago)
Valid To Aug-16 @ 12:00 UTC
(in 23 hours)
Aug-15 @ 12:00 - Aug-15 @ 14:00
Wind Visibility
130° at 5 knots Greater than 6 miles
Clouds
  • Few at 1,000' AGL
  • Scattered at 25,000' AGL
From Aug-15 @ 14:00 - Aug-15 @ 18:00
Wind Visibility
110° at 10 knots Greater than 6 miles
Clouds
  • Few at 3,000' AGL
  • Scattered at 25,000' AGL
From Aug-15 @ 18:00 - Aug-16 @ 01:00
Wind Visibility
110° at 15 knots Greater than 6 miles
Clouds
  • Scattered at 3,000' AGL
  • Broken at 5,000' AGL
From Aug-16 @ 01:00 - Aug-16 @ 12:00
Wind Visibility
100° at 6 knots Greater than 6 miles
Clouds
  • Few at 3,000' AGL
  • Scattered at 25,000' AGL